Time;durP1;ratioP1;P1;durP2;ratioP2;P2;SDS_P1;SDS_P2;PMS_P1;PMS_P2;Temp;Humidity;BMP_temperature;BMP_pressure;BME280_temperature;BME280_humidity;BME280_pressure;Samples;Min_cycle;Max_cycle;Signal;HPM_P1;HPM_P2
2023/10/05 00:00:31;;;;;;;5.38;2.95;;;7.40;99.90;;;;;;2070070;28;20217;-71
2023/10/05 00:01:27;;;;;;;3.70;2.70;;;7.40;99.90;;;;;;2066201;28;20217;-71
2023/10/05 00:02:29;;;;;;;3.90;2.78;;;7.30;99.90;;;;;;2071121;28;20224;-71
2023/10/05 00:03:30;;;;;;;3.15;2.83;;;7.30;99.90;;;;;;2073695;28;20219;-71
2023/10/05 00:04:41;;;;;;;8.67;3.30;;;7.30;99.90;;;;;;2073760;28;20235;-71
2023/10/05 00:05:44;;;;;;;4.72;3.33;;;7.30;99.90;;;;;;2069774;28;20722;-71
2023/10/05 00:06:45;;;;;;;6.38;3.17;;;7.20;99.90;;;;;;2068498;28;20205;-69
2023/10/05 00:07:46;;;;;;;5.88;3.20;;;7.20;99.90;;;;;;2067950;28;20248;-69
2023/10/05 00:08:47;;;;;;;5.13;2.63;;;7.20;99.90;;;;;;2066955;28;20224;-69
2023/10/05 00:09:49;;;;;;;3.83;2.83;;;7.20;99.90;;;;;;2064494;28;20313;-69
2023/10/05 00:10:50;;;;;;;2.92;2.65;;;7.20;99.90;;;;;;2072513;28;20292;-70
2023/10/05 00:11:54;;;;;;;4.67;3.10;;;7.20;99.90;;;;;;2076703;28;20225;-70
2023/10/05 00:12:59;;;;;;;3.45;2.65;;;7.20;99.90;;;;;;2077445;28;20227;-70
2023/10/05 00:14:05;;;;;;;4.57;3.00;;;7.20;99.90;;;;;;2079425;28;20300;-71
2023/10/05 00:16:08;;;;;;;4.03;2.50;;;7.30;99.90;;;;;;2075854;28;20181;-71
2023/10/05 00:17:08;;;;;;;3.83;2.70;;;7.30;99.90;;;;;;2076466;28;20279;-70
2023/10/05 00:18:10;;;;;;;4.20;2.73;;;7.30;99.90;;;;;;2079941;28;20177;-71
2023/10/05 00:19:14;;;;;;;3.83;2.65;;;7.30;99.90;;;;;;2076515;28;20225;-71
2023/10/05 00:20:21;;;;;;;3.03;2.53;;;7.30;99.90;;;;;;2071939;28;20200;-71
2023/10/05 00:21:22;;;;;;;3.53;2.72;;;7.20;99.90;;;;;;2070647;28;20236;-70
2023/10/05 00:22:22;;;;;;;4.17;2.43;;;7.30;99.90;;;;;;2080392;28;20281;-71
2023/10/05 00:23:23;;;;;;;4.77;2.63;;;7.30;99.90;;;;;;2077795;28;20238;-72
2023/10/05 00:24:47;;;;;;;5.23;3.30;;;7.30;99.90;;;;;;2072722;28;20252;-71
2023/10/05 00:25:45;;;;;;;4.15;2.80;;;7.20;99.90;;;;;;2071540;28;21024;-71
2023/10/05 00:26:47;;;;;;;3.77;2.50;;;7.20;99.90;;;;;;2074916;28;20228;-71
2023/10/05 00:27:51;;;;;;;5.25;2.40;;;7.20;99.90;;;;;;2070451;28;20215;-71
2023/10/05 00:29:04;;;;;;;2.97;2.47;;;7.20;99.90;;;;;;2073859;28;20269;-71
2023/10/05 00:30:06;;;;;;;4.45;2.47;;;7.20;99.90;;;;;;2071182;28;20229;-71
2023/10/05 00:31:07;;;;;;;6.10;2.90;;;7.20;99.90;;;;;;2071914;28;20177;-71
2023/10/05 00:32:14;;;;;;;3.43;2.50;;;7.20;99.90;;;;;;2079864;28;20553;-71
2023/10/05 00:33:17;;;;;;;4.00;2.42;;;7.20;99.90;;;;;;2079705;28;20224;-71
2023/10/05 00:34:24;;;;;;;3.90;2.58;;;7.20;99.90;;;;;;2073002;28;20190;-71
2023/10/05 00:35:28;;;;;;;5.80;2.80;;;7.10;99.90;;;;;;2069477;28;20238;-71
2023/10/05 00:36:33;;;;;;;4.72;2.42;;;7.10;99.90;;;;;;2067847;28;20404;-71
2023/10/05 00:37:35;;;;;;;4.85;2.63;;;7.00;99.90;;;;;;2072906;28;20217;-71
2023/10/05 00:38:36;;;;;;;3.97;2.60;;;6.90;99.90;;;;;;2071330;28;20225;-71
2023/10/05 00:39:37;;;;;;;3.80;2.30;;;6.90;99.90;;;;;;2072307;28;20296;-70
2023/10/05 00:41:08;;;;;;;3.13;2.53;;;6.90;99.90;;;;;;2076144;28;20690;-70
2023/10/05 00:42:08;;;;;;;4.45;3.00;;;6.90;99.90;;;;;;2073590;28;20225;-71
2023/10/05 00:43:23;;;;;;;3.83;2.73;;;6.90;99.90;;;;;;2076534;28;20723;-71
2023/10/05 00:44:24;;;;;;;5.35;2.65;;;6.90;99.90;;;;;;2073698;28;20723;-71
2023/10/05 00:45:31;;;;;;;4.13;2.67;;;6.90;99.90;;;;;;2079257;28;20237;-71
2023/10/05 00:46:37;;;;;;;3.85;2.90;;;7.00;99.90;;;;;;2077581;28;20754;-71
2023/10/05 00:47:38;;;;;;;5.38;2.97;;;7.10;99.90;;;;;;2071801;28;20262;-71
2023/10/05 00:49:03;;;;;;;3.53;2.47;;;7.10;99.90;;;;;;2071368;28;20214;-71
2023/10/05 00:50:04;;;;;;;5.20;2.70;;;7.00;99.90;;;;;;2078549;28;20217;-72
2023/10/05 00:51:26;;;;;;;4.00;2.47;;;7.10;99.90;;;;;;2079608;28;20200;-71
2023/10/05 00:52:30;;;;;;;4.90;2.63;;;7.10;99.90;;;;;;2072750;28;20244;-71
2023/10/05 00:53:32;;;;;;;4.35;2.58;;;7.10;99.90;;;;;;2069162;28;20244;-71
2023/10/05 00:54:34;;;;;;;3.72;2.78;;;7.10;99.90;;;;;;2079177;28;20217;-71
2023/10/05 00:55:36;;;;;;;5.53;2.90;;;7.20;99.90;;;;;;2077610;28;20221;-71
2023/10/05 00:56:40;;;;;;;4.78;2.50;;;7.10;99.90;;;;;;2070068;28;20213;-71
2023/10/05 00:57:41;;;;;;;2.78;2.33;;;7.10;99.90;;;;;;2071868;28;20220;-71
2023/10/05 00:58:44;;;;;;;4.43;2.80;;;7.10;99.90;;;;;;2073653;28;20213;-72
2023/10/05 00:59:49;;;;;;;5.90;2.55;;;7.00;99.90;;;;;;2061611;28;20302;-72
2023/10/05 01:00:50;;;;;;;5.03;2.60;;;7.00;99.90;;;;;;2063037;28;20268;-71
2023/10/05 01:03:46;;;;;;;3.00;2.42;;;7.00;99.90;;;;;;2070793;28;20578;-71
2023/10/05 01:04:57;;;;;;;4.13;2.30;;;6.90;99.90;;;;;;2075570;28;20282;-71
2023/10/05 01:06:12;;;;;;;5.25;2.38;;;6.90;99.90;;;;;;2072499;28;20232;-71
2023/10/05 01:07:28;;;;;;;3.17;2.30;;;6.90;99.90;;;;;;2068305;28;20512;-71
2023/10/05 01:08:39;;;;;;;4.95;2.20;;;6.90;99.90;;;;;;2070552;28;20224;-71
2023/10/05 01:10:54;;;;;;;3.83;2.20;;;7.00;99.90;;;;;;2076933;28;20710;-71
2023/10/05 01:12:02;;;;;;;5.70;2.70;;;7.00;99.90;;;;;;2075632;28;20691;-71
2023/10/05 01:13:23;;;;;;;3.85;2.60;;;7.00;99.90;;;;;;2062061;28;20218;-71
2023/10/05 01:14:27;;;;;;;3.80;2.60;;;6.90;99.90;;;;;;2074416;28;20229;-71
2023/10/05 01:15:32;;;;;;;4.20;2.78;;;6.90;99.90;;;;;;2073828;28;20265;-72
2023/10/05 01:16:33;;;;;;;3.38;2.55;;;7.00;99.90;;;;;;2074820;28;20229;-71
2023/10/05 01:17:37;;;;;;;4.63;2.60;;;7.00;99.90;;;;;;2078240;28;20220;-71
2023/10/05 01:18:40;;;;;;;3.25;2.60;;;7.00;99.90;;;;;;2075157;28;20217;-71
2023/10/05 01:19:56;;;;;;;5.18;2.80;;;7.00;99.90;;;;;;2064231;28;20218;-71
2023/10/05 01:21:02;;;;;;;4.13;2.70;;;7.00;99.90;;;;;;2066989;28;20692;-71
2023/10/05 01:22:50;;;;;;;2.88;2.25;;;7.00;99.90;;;;;;2076923;28;20220;-72
2023/10/05 01:23:50;;;;;;;3.95;2.35;;;7.00;99.90;;;;;;2068873;28;20649;-71
2023/10/05 01:24:51;;;;;;;3.07;2.57;;;6.90;99.90;;;;;;2076127;28;20232;-71
2023/10/05 01:25:52;;;;;;;3.65;2.53;;;6.90;99.90;;;;;;2070467;28;20229;-71
2023/10/05 01:26:53;;;;;;;3.87;2.50;;;7.00;99.90;;;;;;2070227;28;20229;-71
2023/10/05 01:27:54;;;;;;;3.83;2.67;;;7.00;99.90;;;;;;2070265;28;20229;-71
2023/10/05 01:28:55;;;;;;;4.35;2.70;;;6.90;99.90;;;;;;2059473;28;20218;-72
2023/10/05 01:29:57;;;;;;;4.40;2.60;;;6.70;99.90;;;;;;2077198;28;20312;-72
2023/10/05 01:30:58;;;;;;;4.95;2.40;;;6.70;99.90;;;;;;2079403;28;20607;-72
2023/10/05 01:31:59;;;;;;;3.47;2.40;;;6.70;99.90;;;;;;2067226;28;20321;-70
2023/10/05 01:33:01;;;;;;;5.20;2.90;;;6.70;99.90;;;;;;2065171;28;20226;-70
2023/10/05 01:34:02;;;;;;;3.50;2.50;;;6.60;99.90;;;;;;2069255;28;20217;-71
2023/10/05 01:35:07;;;;;;;4.57;2.65;;;6.70;99.90;;;;;;2070958;28;20213;-70
2023/10/05 01:36:08;;;;;;;6.38;2.58;;;6.70;99.90;;;;;;2078819;28;20180;-70
2023/10/05 01:37:10;;;;;;;5.17;3.00;;;6.80;99.90;;;;;;2067130;28;20740;-70
2023/10/05 01:38:11;;;;;;;3.67;2.67;;;6.90;99.90;;;;;;2072476;28;20181;-70
2023/10/05 01:39:12;;;;;;;4.97;2.60;;;6.90;99.90;;;;;;2075465;28;20188;-70
2023/10/05 01:40:23;;;;;;;4.88;3.03;;;7.00;99.90;;;;;;2062322;28;20300;-70
2023/10/05 01:41:27;;;;;;;5.57;2.83;;;7.00;99.90;;;;;;2064300;28;20384;-70
2023/10/05 01:42:33;;;;;;;5.80;3.00;;;7.00;99.90;;;;;;2074310;28;20240;-70
2023/10/05 01:43:49;;;;;;;4.00;2.50;;;7.00;99.90;;;;;;2073118;28;20220;-70
2023/10/05 01:44:49;;;;;;;4.43;2.90;;;7.00;99.90;;;;;;2077135;28;20223;-70
2023/10/05 01:45:50;;;;;;;6.27;3.00;;;7.00;99.90;;;;;;2078069;28;20340;-69
2023/10/05 01:46:55;;;;;;;3.97;2.73;;;7.00;99.90;;;;;;2077066;28;20263;-69
2023/10/05 01:48:11;;;;;;;6.07;3.10;;;7.10;99.90;;;;;;2072107;28;20241;-70
2023/10/05 01:49:12;;;;;;;4.75;3.00;;;7.00;99.90;;;;;;2065630;28;20228;-70
2023/10/05 01:50:22;;;;;;;3.97;3.03;;;6.90;99.90;;;;;;2055839;28;20222;-71
2023/10/05 01:51:23;;;;;;;3.08;2.63;;;6.90;99.90;;;;;;2057439;28;20311;-70
2023/10/05 01:52:24;;;;;;;4.23;2.70;;;7.00;99.90;;;;;;2061154;28;20347;-71
2023/10/05 01:53:26;;;;;;;4.13;2.50;;;6.90;99.90;;;;;;2070840;28;20619;-70
2023/10/05 01:54:28;;;;;;;3.60;2.60;;;6.90;99.90;;;;;;2075629;28;20224;-70
2023/10/05 01:55:35;;;;;;;4.00;2.70;;;6.90;99.90;;;;;;2076735;28;20323;-70
2023/10/05 01:56:35;;;;;;;3.70;2.50;;;6.90;99.90;;;;;;2071434;28;20283;-70
2023/10/05 01:57:41;;;;;;;4.03;2.40;;;6.90;99.90;;;;;;2066729;28;20360;-70
2023/10/05 01:58:43;;;;;;;5.18;2.30;;;6.90;99.90;;;;;;2075796;28;20235;-70
2023/10/05 01:59:44;;;;;;;3.17;2.50;;;6.90;99.90;;;;;;2076618;28;20224;-70
2023/10/05 02:00:47;;;;;;;4.83;2.57;;;6.80;99.90;;;;;;2075955;28;20230;-70
2023/10/05 02:01:48;;;;;;;3.90;2.40;;;6.80;99.90;;;;;;2080079;28;20259;-70
2023/10/05 02:02:48;;;;;;;4.23;2.50;;;6.80;99.90;;;;;;2074515;28;20645;-70
2023/10/05 02:03:59;;;;;;;4.20;2.33;;;6.80;99.90;;;;;;2068211;28;20225;-70
2023/10/05 02:04:59;;;;;;;2.72;2.17;;;6.80;99.90;;;;;;2063076;28;20724;-71
2023/10/05 02:06:05;;;;;;;3.03;2.23;;;6.80;99.90;;;;;;2067859;28;20222;-70
2023/10/05 02:07:05;;;;;;;3.70;2.30;;;6.80;99.90;;;;;;2075522;28;20228;-71
2023/10/05 02:08:06;;;;;;;4.13;2.57;;;6.80;99.90;;;;;;2070264;28;20182;-71
2023/10/05 02:09:10;;;;;;;4.43;2.40;;;6.70;99.90;;;;;;2067834;28;20261;-71
2023/10/05 02:10:13;;;;;;;4.63;2.80;;;6.80;99.90;;;;;;2069779;28;20815;-71
2023/10/05 02:11:19;;;;;;;3.17;2.40;;;6.80;99.90;;;;;;2061712;28;20767;-71
2023/10/05 02:12:20;;;;;;;4.82;2.55;;;6.80;99.90;;;;;;2074678;28;20195;-71
2023/10/05 02:13:23;;;;;;;3.20;2.60;;;6.70;99.90;;;;;;2077168;28;20237;-70
2023/10/05 02:14:23;;;;;;;5.18;2.70;;;6.70;99.90;;;;;;2077142;28;20253;-71
2023/10/05 02:15:30;;;;;;;3.57;2.60;;;6.70;99.90;;;;;;2067814;28;20238;-71
2023/10/05 02:16:31;;;;;;;2.38;2.03;;;6.70;99.90;;;;;;2075484;28;20722;-71
2023/10/05 02:17:33;;;;;;;3.30;2.17;;;6.70;99.90;;;;;;2074916;28;20217;-71
2023/10/05 02:18:36;;;;;;;4.65;2.40;;;6.70;99.90;;;;;;2076972;28;20990;-71
2023/10/05 02:19:37;;;;;;;2.80;2.25;;;6.70;99.90;;;;;;2072411;28;20221;-71
2023/10/05 02:20:43;;;;;;;3.95;2.60;;;6.70;99.90;;;;;;2074598;28;20224;-71
2023/10/05 02:21:45;;;;;;;3.42;2.50;;;6.60;99.90;;;;;;2074936;28;20763;-71
2023/10/05 02:22:49;;;;;;;3.60;2.92;;;6.60;99.90;;;;;;2073769;28;20239;-71
2023/10/05 02:23:52;;;;;;;5.78;2.72;;;6.60;99.90;;;;;;2073975;28;20221;-71
2023/10/05 02:24:54;;;;;;;5.45;2.80;;;6.70;99.90;;;;;;2076340;28;20220;-71
2023/10/05 02:26:04;;;;;;;5.60;2.58;;;6.70;99.90;;;;;;2076182;28;20224;-70
2023/10/05 02:27:11;;;;;;;4.15;2.42;;;6.70;99.90;;;;;;2077249;28;20613;-71
2023/10/05 02:28:23;;;;;;;4.75;2.50;;;6.70;99.90;;;;;;2069464;28;20186;-71
2023/10/05 02:29:25;;;;;;;5.63;2.50;;;6.70;99.90;;;;;;2075652;28;20238;-71
2023/10/05 02:30:27;;;;;;;3.88;2.45;;;6.60;99.90;;;;;;2066853;28;20272;-71
2023/10/05 02:31:28;;;;;;;4.00;2.80;;;6.60;99.90;;;;;;2062095;28;20226;-71
2023/10/05 02:32:33;;;;;;;4.95;3.05;;;6.50;99.90;;;;;;2077307;28;21672;-71
2023/10/05 02:33:37;;;;;;;4.75;2.83;;;6.50;99.90;;;;;;2075784;28;20220;-71
2023/10/05 02:36:11;;;;;;;4.78;2.70;;;6.50;99.90;;;;;;2074433;28;20225;-71
2023/10/05 02:37:12;;;;;;;5.55;2.60;;;6.50;99.90;;;;;;2071057;28;20616;-71
2023/10/05 02:38:18;;;;;;;8.48;2.80;;;6.50;99.90;;;;;;2076310;28;20193;-71
2023/10/05 02:39:21;;;;;;;5.45;2.80;;;6.50;99.90;;;;;;2066696;28;20273;-71
2023/10/05 02:40:35;;;;;;;4.22;3.00;;;6.50;99.90;;;;;;2062002;28;20218;-71
2023/10/05 02:41:39;;;;;;;4.40;2.72;;;6.40;99.90;;;;;;2071999;28;20212;-71
2023/10/05 02:42:43;;;;;;;3.55;2.30;;;6.50;99.90;;;;;;2068939;28;20229;-70
2023/10/05 02:43:52;;;;;;;5.15;2.80;;;6.60;99.90;;;;;;2063448;28;20222;-71
2023/10/05 02:44:54;;;;;;;5.20;3.17;;;6.60;99.90;;;;;;2076332;28;20294;-70
2023/10/05 02:46:03;;;;;;;4.72;2.92;;;6.70;99.90;;;;;;2064111;28;20218;-70
2023/10/05 02:47:08;;;;;;;6.90;3.03;;;6.70;99.90;;;;;;2067998;28;20241;-71
2023/10/05 02:48:11;;;;;;;5.65;2.92;;;6.70;99.90;;;;;;2066997;28;20178;-71
2023/10/05 02:49:15;;;;;;;4.22;2.80;;;6.80;99.90;;;;;;2074769;28;20177;-71
2023/10/05 02:50:16;;;;;;;4.00;2.83;;;6.80;99.90;;;;;;2070165;28;20281;-71
2023/10/05 02:51:18;;;;;;;4.20;2.90;;;6.90;99.90;;;;;;2053223;28;20187;-71
2023/10/05 02:52:20;;;;;;;5.47;2.97;;;6.90;99.90;;;;;;2067392;28;20189;-71
2023/10/05 02:53:22;;;;;;;3.85;3.25;;;7.00;99.90;;;;;;2078038;28;20316;-71
2023/10/05 02:54:25;;;;;;;3.78;2.88;;;7.00;99.90;;;;;;2078850;28;20615;-71
2023/10/05 02:55:31;;;;;;;4.45;2.80;;;7.00;99.90;;;;;;2077274;28;20241;-71
2023/10/05 02:56:33;;;;;;;6.43;2.60;;;7.00;99.90;;;;;;2067473;28;20221;-71
2023/10/05 02:57:34;;;;;;;3.70;2.28;;;7.10;99.90;;;;;;2076964;28;20252;-70
2023/10/05 02:58:35;;;;;;;3.73;2.53;;;7.10;99.90;;;;;;2075275;28;20290;-71
2023/10/05 02:59:35;;;;;;;3.40;2.53;;;7.00;99.90;;;;;;2067451;28;20253;-70
2023/10/05 03:00:37;;;;;;;3.23;2.57;;;6.90;99.90;;;;;;2068455;28;20225;-71
2023/10/05 03:01:38;;;;;;;4.30;2.78;;;6.90;99.90;;;;;;2067546;28;20292;-71
2023/10/05 03:02:45;;;;;;;5.22;2.40;;;6.90;99.90;;;;;;2067721;28;20225;-71
2023/10/05 03:03:47;;;;;;;3.63;2.20;;;6.90;99.90;;;;;;2076070;28;20299;-70
2023/10/05 03:04:48;;;;;;;3.67;2.75;;;6.90;99.90;;;;;;2075337;28;20722;-70
2023/10/05 03:05:49;;;;;;;2.67;2.20;;;6.80;99.90;;;;;;2068290;28;20232;-71
2023/10/05 03:06:53;;;;;;;3.67;2.37;;;6.80;99.90;;;;;;2068529;28;20225;-71
2023/10/05 03:07:54;;;;;;;4.78;2.80;;;6.70;99.90;;;;;;2070284;28;20225;-71
2023/10/05 03:08:58;;;;;;;4.07;2.80;;;6.80;99.90;;;;;;2074674;28;20244;-71
2023/10/05 03:09:59;;;;;;;3.40;2.30;;;6.90;99.90;;;;;;2072456;28;20610;-71
2023/10/05 03:11:00;;;;;;;4.78;2.60;;;6.90;99.90;;;;;;2069528;28;20229;-70
2023/10/05 03:12:01;;;;;;;4.93;2.40;;;6.90;99.90;;;;;;2070126;28;20252;-71
2023/10/05 03:13:05;;;;;;;3.97;2.50;;;7.00;99.90;;;;;;2074984;28;20467;-71
2023/10/05 03:14:10;;;;;;;3.63;2.47;;;7.00;99.90;;;;;;2065365;28;20205;-71
2023/10/05 03:15:12;;;;;;;2.75;2.30;;;7.10;99.90;;;;;;2070398;28;20296;-71
2023/10/05 03:16:16;;;;;;;7.03;2.53;;;7.10;99.90;;;;;;2071184;28;20189;-71
2023/10/05 03:17:22;;;;;;;4.63;2.65;;;7.20;99.90;;;;;;2077214;28;20189;-71
2023/10/05 03:18:25;;;;;;;6.05;2.65;;;7.20;99.90;;;;;;2074160;28;20307;-71
2023/10/05 03:19:26;;;;;;;3.65;2.40;;;7.20;99.90;;;;;;2072603;28;20251;-70
2023/10/05 03:20:29;;;;;;;3.83;2.13;;;7.20;99.90;;;;;;2073859;28;20262;-70
2023/10/05 03:21:30;;;;;;;3.80;2.30;;;7.20;99.90;;;;;;2075133;28;20227;-71
2023/10/05 03:22:31;;;;;;;3.70;2.13;;;7.30;99.90;;;;;;2066441;28;20306;-71
2023/10/05 03:23:32;;;;;;;3.33;2.20;;;7.20;99.90;;;;;;2070044;28;20221;-71
2023/10/05 03:24:33;;;;;;;2.57;1.73;;;7.20;99.90;;;;;;2070127;28;20244;-71
2023/10/05 03:25:34;;;;;;;5.75;2.35;;;7.20;99.90;;;;;;2069859;28;20838;-71
2023/10/05 03:26:35;;;;;;;3.73;2.47;;;7.20;99.90;;;;;;2074947;28;20299;-71
2023/10/05 03:27:36;;;;;;;3.13;2.57;;;7.10;99.90;;;;;;2066915;28;20742;-71
2023/10/05 03:28:37;;;;;;;4.53;2.10;;;7.10;99.90;;;;;;2062010;28;20276;-71
2023/10/05 03:29:39;;;;;;;3.42;2.10;;;7.10;99.90;;;;;;2068663;28;20217;-71
2023/10/05 03:30:39;;;;;;;2.28;2.05;;;7.10;99.90;;;;;;2074871;28;20219;-71
2023/10/05 03:31:52;;;;;;;2.60;2.00;;;7.20;99.90;;;;;;2074782;28;20217;-69
2023/10/05 03:32:57;;;;;;;2.78;2.28;;;7.20;99.90;;;;;;2073150;28;20240;-69
2023/10/05 03:34:01;;;;;;;3.08;2.15;;;7.20;99.90;;;;;;2070073;28;20656;-71
2023/10/05 03:35:04;;;;;;;3.65;2.33;;;7.20;99.90;;;;;;2067602;28;20213;-71
2023/10/05 03:36:14;;;;;;;2.90;1.90;;;7.20;99.90;;;;;;2061858;28;20204;-70
2023/10/05 03:37:15;;;;;;;2.95;2.03;;;7.20;99.90;;;;;;2068854;28;20193;-71
2023/10/05 03:38:22;;;;;;;3.35;2.33;;;7.20;99.90;;;;;;2072454;28;20676;-70
2023/10/05 03:39:25;;;;;;;2.83;1.88;;;7.20;99.90;;;;;;2069533;28;20233;-70
2023/10/05 03:40:35;;;;;;;4.97;2.00;;;7.10;99.90;;;;;;2076494;28;20240;-70
2023/10/05 03:41:38;;;;;;;4.03;2.10;;;7.10;99.90;;;;;;2073372;28;20550;-70
2023/10/05 03:42:39;;;;;;;2.85;2.00;;;7.20;99.90;;;;;;2076330;28;20271;-70
2023/10/05 03:43:41;;;;;;;3.27;2.10;;;7.10;99.90;;;;;;2078430;28;20259;-70
2023/10/05 03:44:41;;;;;;;5.93;2.33;;;7.10;99.90;;;;;;2069729;28;20245;-70
2023/10/05 03:45:42;;;;;;;2.93;2.10;;;7.10;99.90;;;;;;2070340;28;20220;-70
2023/10/05 03:46:46;;;;;;;3.97;2.00;;;7.10;99.90;;;;;;2068641;28;20641;-71
2023/10/05 03:47:49;;;;;;;2.75;1.80;;;7.20;99.90;;;;;;2069771;28;20213;-70
2023/10/05 03:48:49;;;;;;;4.03;2.33;;;7.20;99.90;;;;;;2071280;28;20711;-70
2023/10/05 03:49:55;;;;;;;4.80;2.13;;;7.20;99.90;;;;;;2077481;28;20221;-70
2023/10/05 03:50:56;;;;;;;3.00;2.00;;;7.10;99.90;;;;;;2079540;28;20303;-70
2023/10/05 03:51:57;;;;;;;2.60;2.00;;;7.10;99.90;;;;;;2079837;28;20661;-70
2023/10/05 03:52:58;;;;;;;5.87;2.30;;;7.10;99.90;;;;;;2079423;28;20224;-70
2023/10/05 03:53:59;;;;;;;2.42;2.20;;;7.10;99.90;;;;;;2078799;28;20240;-70
2023/10/05 03:55:01;;;;;;;4.17;2.13;;;7.10;99.90;;;;;;2068244;28;20703;-70
2023/10/05 03:56:02;;;;;;;2.45;2.00;;;7.20;99.90;;;;;;2061822;28;20214;-71
2023/10/05 03:57:12;;;;;;;3.00;1.83;;;7.20;99.90;;;;;;2062750;28;20190;-71
2023/10/05 03:58:12;;;;;;;3.65;2.45;;;7.10;99.90;;;;;;2072469;28;20181;-71
2023/10/05 03:59:13;;;;;;;4.70;2.20;;;7.20;99.90;;;;;;2072380;28;20660;-71
2023/10/05 04:00:23;;;;;;;2.77;2.00;;;7.20;99.90;;;;;;2070306;28;20190;-71
2023/10/05 04:01:24;;;;;;;3.35;2.30;;;7.20;99.90;;;;;;2060130;28;20312;-71
2023/10/05 04:02:25;;;;;;;2.77;2.10;;;7.20;99.90;;;;;;2068516;28;20728;-71
2023/10/05 04:03:26;;;;;;;4.43;2.15;;;7.20;99.90;;;;;;2078333;28;20262;-70
2023/10/05 04:04:35;;;;;;;5.82;2.85;;;7.30;99.90;;;;;;2078979;28;20232;-70
2023/10/05 04:05:39;;;;;;;3.17;2.25;;;7.30;99.90;;;;;;2075600;28;20219;-70
2023/10/05 04:06:41;;;;;;;3.75;2.10;;;7.40;99.90;;;;;;2077708;28;20220;-70
2023/10/05 04:07:42;;;;;;;2.65;2.17;;;7.40;99.90;;;;;;2077052;28;20393;-70
2023/10/05 04:08:49;;;;;;;3.72;2.20;;;7.40;99.90;;;;;;2077837;28;20706;-70
2023/10/05 04:09:52;;;;;;;3.97;2.38;;;7.40;99.90;;;;;;2071355;28;20213;-71
2023/10/05 04:10:54;;;;;;;2.38;2.00;;;7.40;99.90;;;;;;2077912;28;20222;-71
2023/10/05 04:12:00;;;;;;;2.97;2.05;;;7.30;99.90;;;;;;2076055;28;20308;-71
2023/10/05 04:13:01;;;;;;;2.42;1.83;;;7.30;99.90;;;;;;2078083;28;20721;-72
2023/10/05 04:14:03;;;;;;;3.20;2.30;;;7.30;99.90;;;;;;2078695;28;20239;-71
2023/10/05 04:15:09;;;;;;;3.83;2.40;;;7.20;99.90;;;;;;2074006;28;20593;-72
2023/10/05 04:16:17;;;;;;;2.58;2.28;;;7.10;99.90;;;;;;2070145;28;20659;-71
2023/10/05 04:17:21;;;;;;;3.72;2.17;;;7.10;99.90;;;;;;2082112;28;20184;-70
2023/10/05 04:18:21;;;;;;;4.07;2.50;;;7.10;99.90;;;;;;2078679;28;20707;-71
2023/10/05 04:19:22;;;;;;;2.90;2.10;;;7.10;99.90;;;;;;2066842;28;20265;-71
2023/10/05 04:20:29;;;;;;;3.83;2.93;;;7.10;99.90;;;;;;2072837;28;20583;-71
2023/10/05 04:21:31;;;;;;;7.30;2.80;;;7.20;99.90;;;;;;2075055;28;20236;-70
2023/10/05 04:22:32;;;;;;;4.32;2.65;;;7.30;99.90;;;;;;2075552;28;20232;-71
2023/10/05 04:23:33;;;;;;;4.63;3.00;;;7.40;99.90;;;;;;2067293;28;20256;-71
2023/10/05 04:24:34;;;;;;;6.87;3.20;;;7.40;99.90;;;;;;2070053;28;20798;-71
2023/10/05 04:25:35;;;;;;;4.50;2.50;;;7.50;99.90;;;;;;2077065;28;20274;-71
2023/10/05 04:26:37;;;;;;;3.95;2.60;;;7.40;99.90;;;;;;2076908;28;20302;-71
2023/10/05 04:27:38;;;;;;;4.20;2.38;;;7.40;99.90;;;;;;2077571;28;20251;-71
2023/10/05 04:28:51;;;;;;;4.70;2.73;;;7.50;99.90;;;;;;2065354;28;20217;-71
2023/10/05 04:29:53;;;;;;;4.93;2.42;;;7.50;99.90;;;;;;2071854;28;20457;-71
2023/10/05 04:30:57;;;;;;;3.97;2.58;;;7.50;99.90;;;;;;2073185;28;20315;-71
2023/10/05 04:31:58;;;;;;;6.15;2.95;;;7.50;99.90;;;;;;2079958;28;20218;-71
2023/10/05 04:32:58;;;;;;;4.10;2.78;;;7.50;99.90;;;;;;2075206;28;20302;-71
2023/10/05 04:34:00;;;;;;;4.77;2.60;;;7.50;99.90;;;;;;2076958;28;20706;-71
2023/10/05 04:35:11;;;;;;;3.47;2.42;;;7.50;99.90;;;;;;2071036;28;20226;-71
2023/10/05 04:36:13;;;;;;;4.70;2.88;;;7.50;99.90;;;;;;2079189;28;20196;-71
2023/10/05 04:37:13;;;;;;;6.22;3.10;;;7.50;99.90;;;;;;2067767;28;20215;-71
2023/10/05 04:38:14;;;;;;;3.27;2.77;;;7.60;99.90;;;;;;2074190;28;20183;-71
2023/10/05 04:39:25;;;;;;;5.57;2.70;;;7.60;99.90;;;;;;2077497;28;20371;-71
2023/10/05 04:40:26;;;;;;;3.03;2.72;;;7.60;99.90;;;;;;2075927;28;20229;-71
2023/10/05 04:41:31;;;;;;;3.53;2.73;;;7.60;99.90;;;;;;2068391;28;20226;-71
2023/10/05 04:42:32;;;;;;;6.90;2.55;;;7.70;99.90;;;;;;2079543;28;20222;-71
2023/10/05 04:43:34;;;;;;;4.00;2.47;;;7.70;99.90;;;;;;2066952;28;20300;-70
2023/10/05 04:44:35;;;;;;;3.67;2.95;;;7.70;99.90;;;;;;2075358;28;20878;-69
2023/10/05 04:45:36;;;;;;;5.93;2.60;;;7.80;99.90;;;;;;2077871;28;20233;-70
2023/10/05 04:46:36;;;;;;;3.70;3.30;;;7.80;99.90;;;;;;2068275;28;20219;-70
2023/10/05 04:47:38;;;;;;;4.43;3.47;;;7.90;99.90;;;;;;2071275;28;20546;-69
2023/10/05 04:48:38;;;;;;;4.43;3.00;;;7.90;99.90;;;;;;2079067;28;20221;-69
2023/10/05 04:49:39;;;;;;;6.53;3.80;;;8.00;99.90;;;;;;2075956;28;20280;-69
2023/10/05 04:50:43;;;;;;;4.87;3.30;;;8.10;99.90;;;;;;2079116;28;20533;-69
2023/10/05 04:51:44;;;;;;;5.50;3.67;;;8.10;99.90;;;;;;2078481;28;20226;-69
2023/10/05 04:52:50;;;;;;;4.43;3.57;;;8.00;99.90;;;;;;2068752;28;20673;-70
2023/10/05 04:53:54;;;;;;;6.85;3.97;;;8.10;99.90;;;;;;2070131;28;20219;-69
2023/10/05 04:54:57;;;;;;;5.65;4.00;;;8.20;99.90;;;;;;2079741;28;20212;-69
2023/10/05 04:56:27;;;;;;;6.40;4.40;;;8.20;99.90;;;;;;2074435;28;20692;-69
2023/10/05 04:57:39;;;;;;;6.20;3.78;;;8.20;99.90;;;;;;2075116;28;20228;-69
2023/10/05 05:00:19;;;;;;;4.75;3.80;;;8.40;99.90;;;;;;2076144;28;20217;-69
2023/10/05 05:01:29;;;;;;;5.10;3.67;;;8.40;99.90;;;;;;2075285;28;20214;-69
2023/10/05 05:02:58;;;;;;;5.63;3.90;;;8.40;99.90;;;;;;2075544;28;20237;-69
2023/10/05 05:04:12;;;;;;;4.72;3.55;;;8.60;99.90;;;;;;2074717;28;20221;-69
2023/10/05 05:05:33;;;;;;;7.47;4.25;;;8.60;99.90;;;;;;2076070;28;20225;-69
2023/10/05 05:06:34;;;;;;;5.22;3.78;;;8.50;99.90;;;;;;2074256;28;20219;-69
2023/10/05 05:07:36;;;;;;;5.17;3.67;;;8.50;99.90;;;;;;2073790;28;20297;-69
2023/10/05 05:08:38;;;;;;;6.18;3.83;;;8.60;99.90;;;;;;2079142;28;20236;-69
2023/10/05 05:09:41;;;;;;;6.75;3.50;;;8.70;99.90;;;;;;2076249;28;20722;-69
2023/10/05 05:10:42;;;;;;;11.85;4.10;;;8.70;99.90;;;;;;2076045;28;20698;-69
2023/10/05 05:11:43;;;;;;;5.67;3.30;;;8.60;99.90;;;;;;2078928;28;20225;-69
2023/10/05 05:12:44;;;;;;;6.73;3.50;;;8.60;99.90;;;;;;2078910;28;20218;-69
2023/10/05 05:13:51;;;;;;;4.73;3.67;;;8.70;99.90;;;;;;2077967;28;20244;-69
2023/10/05 05:14:55;;;;;;;4.72;3.15;;;8.70;99.90;;;;;;2077719;28;20219;-69
2023/10/05 05:15:57;;;;;;;3.78;3.08;;;8.70;99.90;;;;;;2076789;28;20659;-69
2023/10/05 05:16:58;;;;;;;5.88;3.13;;;8.60;99.90;;;;;;2077075;28;20227;-69
2023/10/05 05:17:59;;;;;;;4.25;3.63;;;8.60;99.90;;;;;;2076715;28;20694;-69
2023/10/05 05:18:59;;;;;;;5.30;3.60;;;8.50;99.90;;;;;;2067043;28;20218;-69
2023/10/05 05:20:10;;;;;;;3.90;3.50;;;8.50;99.90;;;;;;2067527;28;20570;-69
2023/10/05 05:21:11;;;;;;;5.55;3.72;;;8.50;99.90;;;;;;2079067;28;20243;-69
2023/10/05 05:22:13;;;;;;;4.67;3.90;;;8.50;99.90;;;;;;2078480;28;20187;-70
2023/10/05 05:23:16;;;;;;;13.10;6.90;;;8.40;99.90;;;;;;2068657;28;20199;-70
2023/10/05 05:24:17;;;;;;;11.23;6.20;;;8.40;99.90;;;;;;2077767;28;20194;-70
2023/10/05 05:25:19;;;;;;;11.27;5.77;;;8.50;99.90;;;;;;2073980;28;20724;-70
2023/10/05 05:26:20;;;;;;;8.45;5.18;;;8.40;99.90;;;;;;2077162;28;20197;-70
2023/10/05 05:27:24;;;;;;;8.83;5.03;;;8.30;99.90;;;;;;2067410;28;20759;-70
2023/10/05 05:28:24;;;;;;;6.68;4.50;;;8.30;99.90;;;;;;2076614;28;20241;-70
2023/10/05 05:29:25;;;;;;;9.07;6.37;;;8.30;99.90;;;;;;2073793;28;20330;-70
2023/10/05 05:30:26;;;;;;;10.37;4.93;;;8.20;99.90;;;;;;2079313;28;20309;-70
2023/10/05 05:31:27;;;;;;;7.50;4.37;;;8.20;99.90;;;;;;2078703;28;20234;-69
2023/10/05 05:32:29;;;;;;;5.47;4.20;;;8.10;99.90;;;;;;2071810;28;20241;-71
2023/10/05 05:33:30;;;;;;;6.50;4.40;;;8.10;99.90;;;;;;2075131;28;20728;-69
2023/10/05 05:34:32;;;;;;;7.00;4.10;;;8.20;99.90;;;;;;2078652;28;20230;-69
2023/10/05 05:35:32;;;;;;;6.60;4.60;;;8.20;99.90;;;;;;2074974;28;20264;-69
2023/10/05 05:36:36;;;;;;;6.07;4.40;;;8.20;99.90;;;;;;2079381;28;20277;-70
2023/10/05 05:37:36;;;;;;;7.72;4.43;;;8.20;99.90;;;;;;2079129;28;20223;-69
2023/10/05 05:38:39;;;;;;;6.90;4.53;;;8.20;99.90;;;;;;2076807;28;20952;-70
2023/10/05 05:39:40;;;;;;;6.82;4.75;;;8.30;99.90;;;;;;2068430;28;20631;-70
2023/10/05 05:40:42;;;;;;;10.63;5.32;;;8.20;99.90;;;;;;2067810;28;20228;-69
2023/10/05 05:41:42;;;;;;;10.23;5.13;;;8.20;99.90;;;;;;2070879;28;20635;-69
2023/10/05 05:42:46;;;;;;;10.43;5.50;;;8.10;99.90;;;;;;2077586;28;20317;-71
2023/10/05 05:43:46;;;;;;;8.50;5.15;;;8.00;99.90;;;;;;2078640;28;20218;-69
2023/10/05 05:44:48;;;;;;;8.03;4.73;;;8.00;99.90;;;;;;2078655;28;20216;-69